Terminal Aerodrome Forecast
Issued by NWS

Home | Current Version | Previous Version | Text Only | Print | Product List | Glossary On
Versions: 1 2 3 4 5 6 7 8 9 10 11 12 13 14
000
FTUS46 KLOX 302300 RRA
TAFLGB
TAF
KLGB 302340Z 3100/3124 29007KT P6SM BKN100
     FM310400 VRB03KT P6SM SCT050 BKN120
     FM311100 VRB03KT P6SM BKN020 BKN120
     FM311700 04005KT P6SM BKN025 BKN100
     FM311900 17005KT P6SM SCT025 BKN100
     FM312100 21007KT P6SM SCT030 BKN100=

USA.gov is the U.S. government's official web portal to all federal, state and local government web resources and services.